createdAt,value
2023-02-16T00:00:38.364Z,-0.29
2023-02-16T00:03:27.741Z,-0.38
2023-02-16T00:06:16.310Z,-0.38
2023-02-16T00:09:04.090Z,-0.41
2023-02-16T00:12:10.577Z,-0.44
2023-02-16T00:14:59.984Z,-0.50
2023-02-16T00:17:51.995Z,-0.48
2023-02-16T00:20:39.619Z,-0.48
2023-02-16T00:23:40.729Z,-0.47
2023-02-16T00:26:36.705Z,-0.47
2023-02-16T00:29:29.289Z,-0.50
2023-02-16T00:32:18.130Z,-0.49
2023-02-16T00:35:16.614Z,-0.56
2023-02-16T00:38:04.767Z,-0.50
2023-02-16T00:40:52.703Z,-0.55
2023-02-16T00:43:40.290Z,-0.57
2023-02-16T00:46:28.015Z,-0.53
2023-02-16T00:49:18.280Z,-0.50
2023-02-16T00:52:33.954Z,-0.54
2023-02-16T00:55:27.196Z,-0.53
2023-02-16T00:58:24.660Z,-0.55
2023-02-16T01:01:19.728Z,-0.58
2023-02-16T01:04:13.595Z,-0.59
2023-02-16T01:07:19.995Z,-0.60
2023-02-16T01:10:26.721Z,-0.64
2023-02-16T01:13:15.052Z,-0.61
2023-02-16T01:16:03.402Z,-0.62
2023-02-16T01:18:52.223Z,-0.56
2023-02-16T01:21:40.213Z,-0.52
2023-02-16T01:24:29.134Z,-0.46
2023-02-16T01:27:16.694Z,-0.43
2023-02-16T01:30:04.882Z,-0.42
2023-02-16T01:32:55.637Z,-0.42
2023-02-16T01:35:44.059Z,-0.50
2023-02-16T01:38:32.301Z,-0.52
2023-02-16T01:41:38.607Z,-0.56
2023-02-16T01:44:31.512Z,-0.55
2023-02-16T01:47:39.300Z,-0.54
2023-02-16T01:50:45.793Z,-0.53
2023-02-16T01:53:53.134Z,-0.52
2023-02-16T01:56:57.241Z,-0.56
2023-02-16T02:00:25.083Z,-0.56
2023-02-16T02:06:42.895Z,-0.64
2023-02-16T02:09:48.759Z,-0.69
2023-02-16T02:12:49.304Z,-0.70
2023-02-16T02:15:48.067Z,-0.74
2023-02-16T02:18:36.128Z,-0.79
2023-02-16T02:22:26.471Z,-0.85
2023-02-16T02:26:03.787Z,-0.91
2023-02-16T02:29:08.209Z,-0.96
2023-02-16T02:32:18.489Z,-1.02
2023-02-16T02:35:30.680Z,-1.06
2023-02-16T02:38:36.834Z,-1.13
2023-02-16T02:41:50.577Z,-1.19
2023-02-16T02:44:58.241Z,-1.26
2023-02-16T02:47:48.660Z,-1.33
2023-02-16T02:51:09.673Z,-1.37
2023-02-16T02:54:22.719Z,-1.47
2023-02-16T02:57:48.762Z,-1.56
2023-02-16T03:00:47.868Z,-1.67
2023-02-16T03:03:46.844Z,-1.65
2023-02-16T03:06:39.592Z,-1.70
2023-02-16T03:09:33.184Z,-1.71
2023-02-16T03:12:53.342Z,-1.78
2023-02-16T03:15:45.591Z,-1.86
2023-02-16T03:19:01.207Z,-1.85
2023-02-16T03:26:01.687Z,-1.95
2023-02-16T03:29:11.290Z,-1.98
2023-02-16T03:32:01.537Z,-2.02
2023-02-16T03:34:56.662Z,-2.04
2023-02-16T03:37:52.508Z,-2.07
2023-02-16T03:41:35.251Z,-2.11
2023-02-16T03:44:31.032Z,-2.13
2023-02-16T03:47:37.730Z,-2.13
2023-02-16T03:50:30.556Z,-2.14
2023-02-16T03:53:34.191Z,-2.18
2023-02-16T03:56:24.407Z,-2.22
2023-02-16T03:59:18.926Z,-2.27
2023-02-16T04:02:13.259Z,-2.28
2023-02-16T04:05:07.637Z,-2.30
2023-02-16T04:08:08.027Z,-2.32
2023-02-16T04:11:05.849Z,-2.34
2023-02-16T04:14:04.702Z,-2.35
2023-02-16T04:16:54.576Z,-2.38
2023-02-16T04:20:14.643Z,-2.39
2023-02-16T04:23:05.545Z,-2.39
2023-02-16T04:26:05.122Z,-2.43
2023-02-16T04:29:00.148Z,-2.47
2023-02-16T04:32:03.737Z,-2.50
2023-02-16T04:38:32.336Z,-2.58
2023-02-16T04:41:26.482Z,-2.59
2023-02-16T04:44:23.399Z,-2.63
2023-02-16T04:47:11.636Z,-2.64
2023-02-16T04:50:04.683Z,-2.66
2023-02-16T04:52:52.639Z,-2.69
2023-02-16T04:55:47.077Z,-2.71
2023-02-16T04:58:34.580Z,-2.66
2023-02-16T05:01:25.209Z,-2.71
2023-02-16T05:04:13.044Z,-2.76
2023-02-16T05:07:00.986Z,-2.77
2023-02-16T05:09:48.366Z,-2.79
2023-02-16T05:12:54.968Z,-2.79
2023-02-16T05:15:42.405Z,-2.81
2023-02-16T05:18:29.861Z,-2.73
2023-02-16T05:21:32.859Z,-2.60
2023-02-16T05:24:22.520Z,-2.42
2023-02-16T05:27:15.118Z,-2.36
2023-02-16T05:30:05.170Z,-2.34
2023-02-16T05:32:52.842Z,-2.30
2023-02-16T05:35:40.645Z,-2.28
2023-02-16T05:38:28.477Z,-2.17
2023-02-16T05:41:23.521Z,-2.14
2023-02-16T05:44:12.567Z,-2.09
2023-02-16T05:47:01.524Z,-2.07
2023-02-16T05:49:49.237Z,-2.03
2023-02-16T05:52:36.782Z,-1.98
2023-02-16T05:55:24.468Z,-1.95
2023-02-16T05:58:12.240Z,-1.95
2023-02-16T06:01:00.146Z,-1.89
2023-02-16T06:03:50.288Z,-1.88
2023-02-16T06:06:38.548Z,-1.86
2023-02-16T06:09:26.341Z,-1.82
2023-02-16T06:12:16.933Z,-1.79
2023-02-16T06:15:05.559Z,-1.78
2023-02-16T06:17:53.452Z,-1.76
2023-02-16T06:20:45.868Z,-1.74
2023-02-16T06:23:33.504Z,-1.73
2023-02-16T06:26:21.268Z,-1.76
2023-02-16T06:29:09.545Z,-1.68
2023-02-16T06:31:57.435Z,-1.74
2023-02-16T06:34:45.089Z,-1.71
2023-02-16T06:37:37.100Z,-1.66
2023-02-16T06:40:25.802Z,-1.63
2023-02-16T06:43:13.341Z,-1.57
2023-02-16T06:46:01.007Z,-1.58
2023-02-16T06:48:48.771Z,-1.63
2023-02-16T06:51:36.327Z,-1.63
2023-02-16T06:54:25.592Z,-1.59
2023-02-16T06:57:13.601Z,-1.59
2023-02-16T07:00:01.303Z,-1.56
2023-02-16T07:02:48.837Z,-1.54
2023-02-16T07:05:36.189Z,-1.59
2023-02-16T07:08:23.832Z,-1.63
2023-02-16T07:11:13.573Z,-1.61
2023-02-16T07:14:01.033Z,-1.58
2023-02-16T07:16:48.480Z,-1.62
2023-02-16T07:19:36.206Z,-1.62
2023-02-16T07:22:24.079Z,-1.61
2023-02-16T07:25:14.117Z,-1.62
2023-02-16T07:28:04.655Z,-1.57
2023-02-16T07:30:53.244Z,-1.57
2023-02-16T07:33:45.358Z,-1.62
2023-02-16T07:36:37.399Z,-1.62
2023-02-16T07:39:25.200Z,-1.59
2023-02-16T07:42:14.052Z,-1.63
2023-02-16T07:45:03.670Z,-1.65
2023-02-16T07:47:51.274Z,-1.60
2023-02-16T07:50:39.130Z,-1.55
2023-02-16T07:53:27.000Z,-1.51
2023-02-16T07:56:25.827Z,-1.53
2023-02-16T07:59:16.826Z,-1.56
2023-02-16T08:02:06.119Z,-1.52
2023-02-16T08:04:54.073Z,-1.57
2023-02-16T08:07:42.127Z,-1.55
2023-02-16T08:10:29.949Z,-1.52
2023-02-16T08:13:17.824Z,-1.46
2023-02-16T08:16:10.244Z,-1.31
2023-02-16T08:19:03.580Z,-1.24
2023-02-16T08:21:50.919Z,-1.25
2023-02-16T08:24:39.244Z,-1.20
2023-02-16T08:27:27.559Z,-1.12
2023-02-16T08:30:18.169Z,-0.92
2023-02-16T08:33:06.018Z,-0.86
2023-02-16T08:35:55.341Z,-0.67
2023-02-16T08:38:43.315Z,-0.57
2023-02-16T08:41:34.654Z,-0.46
2023-02-16T08:44:25.069Z,-0.33
2023-02-16T08:47:12.727Z,-0.12
2023-02-16T08:50:00.591Z,0.06
2023-02-16T08:52:52.309Z,0.16
2023-02-16T08:55:40.484Z,0.23
2023-02-16T08:58:28.588Z,0.44
2023-02-16T09:01:16.679Z,0.53
2023-02-16T09:04:04.955Z,0.65
2023-02-16T09:06:53.688Z,0.66
2023-02-16T09:09:44.480Z,0.69
2023-02-16T09:12:35.291Z,0.81
2023-02-16T09:15:25.805Z,0.97
2023-02-16T09:18:14.650Z,1.20
2023-02-16T09:21:07.616Z,1.30
2023-02-16T09:23:58.290Z,1.39
2023-02-16T09:26:48.159Z,1.50
2023-02-16T09:29:35.828Z,1.69
2023-02-16T09:32:24.327Z,1.80
2023-02-16T09:35:12.474Z,1.90
2023-02-16T09:38:00.136Z,1.97
2023-02-16T09:40:47.933Z,2.10
2023-02-16T09:43:50.565Z,2.19
2023-02-16T09:46:40.850Z,2.41
2023-02-16T09:49:37.168Z,2.57
2023-02-16T09:52:37.060Z,2.65
2023-02-16T09:55:30.603Z,2.77
2023-02-16T09:58:23.233Z,2.93
2023-02-16T10:01:29.039Z,3.11
2023-02-16T10:04:39.045Z,3.23
2023-02-16T10:07:46.800Z,3.28
2023-02-16T10:10:48.425Z,3.52
2023-02-16T10:13:47.245Z,3.56
2023-02-16T10:16:44.016Z,3.72
2023-02-16T10:19:43.156Z,4.04
2023-02-16T10:22:37.892Z,4.35
2023-02-16T10:25:36.561Z,4.59
2023-02-16T10:28:41.081Z,4.88
2023-02-16T10:31:40.278Z,4.86
2023-02-16T10:34:48.577Z,4.90
2023-02-16T10:37:59.297Z,5.26
2023-02-16T10:41:00.166Z,5.33
2023-02-16T10:43:55.703Z,5.70
2023-02-16T10:46:53.431Z,5.80
2023-02-16T10:49:41.326Z,5.89
2023-02-16T10:52:36.115Z,6.06
2023-02-16T10:55:23.803Z,6.22
2023-02-16T10:58:23.184Z,6.46
2023-02-16T11:01:17.027Z,6.39
2023-02-16T11:04:07.241Z,6.42
2023-02-16T11:07:06.041Z,6.59
2023-02-16T11:09:57.263Z,6.84
2023-02-16T11:12:45.584Z,7.01
2023-02-16T11:15:36.421Z,6.92
2023-02-16T11:18:34.898Z,7.19
2023-02-16T11:21:47.324Z,7.68
2023-02-16T11:24:38.323Z,7.69
2023-02-16T11:27:27.076Z,7.92
2023-02-16T11:30:29.443Z,8.01
2023-02-16T11:33:27.082Z,8.15
2023-02-16T11:36:27.047Z,8.58
2023-02-16T11:39:21.973Z,8.73
2023-02-16T11:42:21.892Z,9.07
2023-02-16T11:45:24.907Z,9.43
2023-02-16T11:48:28.952Z,9.35
2023-02-16T11:51:32.974Z,9.51
2023-02-16T11:54:22.300Z,9.85
2023-02-16T11:57:15.676Z,10.19
2023-02-16T12:00:18.461Z,10.75
2023-02-16T12:03:39.119Z,10.90
2023-02-16T12:06:47.145Z,10.95
2023-02-16T12:09:50.906Z,10.78
2023-02-16T12:12:54.069Z,10.48
2023-02-16T12:15:51.062Z,11.17
2023-02-16T12:18:52.275Z,11.51
2023-02-16T12:21:47.771Z,11.97
2023-02-16T12:24:54.539Z,11.84
2023-02-16T12:27:57.996Z,11.75
2023-02-16T12:31:03.788Z,12.47
2023-02-16T12:34:08.312Z,12.22
2023-02-16T12:37:10.356Z,12.18
2023-02-16T12:40:14.652Z,12.58
2023-02-16T12:43:23.026Z,13.28
2023-02-16T12:46:30.573Z,12.77
2023-02-16T12:49:25.578Z,13.03
2023-02-16T12:52:33.946Z,13.73
2023-02-16T12:55:36.310Z,13.98
2023-02-16T12:58:31.033Z,14.68
2023-02-16T13:01:25.505Z,15.01
2023-02-16T13:04:25.775Z,15.22
2023-02-16T13:07:26.990Z,15.58
2023-02-16T13:10:24.740Z,15.83
2023-02-16T13:13:19.006Z,16.04
2023-02-16T13:16:29.172Z,16.10
2023-02-16T13:19:18.535Z,16.28
2023-02-16T13:22:44.507Z,16.27
2023-02-16T13:26:05.871Z,16.40
2023-02-16T13:29:24.364Z,16.53
2023-02-16T13:32:48.361Z,16.51
2023-02-16T13:36:19.077Z,16.46
2023-02-16T13:39:43.377Z,16.44
2023-02-16T13:43:27.577Z,16.40
2023-02-16T13:46:31.308Z,16.37
2023-02-16T13:49:38.665Z,16.30
2023-02-16T13:52:35.574Z,16.26
2023-02-16T13:55:34.938Z,16.22
2023-02-16T13:58:33.602Z,16.22
2023-02-16T14:01:43.047Z,16.16
2023-02-16T14:05:10.729Z,16.10
2023-02-16T14:08:27.971Z,16.06
2023-02-16T14:11:19.123Z,15.94
2023-02-16T14:14:31.204Z,15.92
2023-02-16T14:17:30.461Z,15.92
2023-02-16T14:20:35.850Z,15.81
2023-02-16T14:23:43.426Z,15.77
2023-02-16T14:26:55.624Z,15.61
2023-02-16T14:29:55.010Z,15.57
2023-02-16T14:32:54.671Z,15.51
2023-02-16T14:35:47.899Z,15.41
2023-02-16T14:38:38.468Z,15.30
2023-02-16T14:41:33.637Z,15.18
2023-02-16T14:44:54.220Z,15.09
2023-02-16T14:48:01.066Z,15.00
2023-02-16T14:51:18.947Z,14.93
2023-02-16T14:54:52.619Z,14.86
2023-02-16T14:57:51.958Z,14.76
2023-02-16T15:00:50.923Z,14.72
2023-02-16T15:03:50.248Z,14.69
2023-02-16T15:06:44.026Z,14.65
2023-02-16T15:09:35.105Z,14.62
2023-02-16T15:12:30.004Z,14.53
2023-02-16T15:15:27.599Z,14.43
2023-02-16T15:18:22.250Z,14.19
2023-02-16T15:21:20.716Z,14.14
2023-02-16T15:24:22.996Z,14.02
2023-02-16T15:27:23.803Z,13.82
2023-02-16T15:30:24.623Z,13.82
2023-02-16T15:33:33.836Z,13.73
2023-02-16T15:36:31.427Z,13.65
2023-02-16T15:39:45.233Z,13.55
2023-02-16T15:42:39.703Z,13.42
2023-02-16T15:45:35.278Z,13.30
2023-02-16T15:48:30.398Z,13.13
2023-02-16T15:51:24.918Z,13.04
2023-02-16T15:54:28.982Z,12.94
2023-02-16T15:57:31.956Z,12.86
2023-02-16T16:00:23.423Z,12.77
2023-02-16T16:03:17.906Z,12.65
2023-02-16T16:06:08.488Z,12.56
2023-02-16T16:08:56.355Z,12.49
2023-02-16T16:11:44.410Z,12.42
2023-02-16T16:14:36.661Z,12.33
2023-02-16T16:17:29.872Z,12.21
2023-02-16T16:20:30.433Z,12.10
2023-02-16T16:23:28.281Z,11.99
2023-02-16T16:26:21.631Z,11.88
2023-02-16T16:29:34.451Z,11.75
2023-02-16T16:32:25.565Z,11.63
2023-02-16T16:35:24.383Z,11.50
2023-02-16T16:38:27.100Z,11.36
2023-02-16T16:41:29.099Z,11.21
2023-02-16T16:44:35.364Z,11.08
2023-02-16T16:47:31.402Z,10.94
2023-02-16T16:50:39.515Z,10.77
2023-02-16T16:54:04.114Z,10.61
2023-02-16T16:56:51.817Z,10.48
2023-02-16T16:59:39.523Z,10.38
2023-02-16T17:02:27.074Z,10.26
2023-02-16T17:05:14.624Z,10.11
2023-02-16T17:08:03.522Z,9.99
2023-02-16T17:10:52.542Z,9.86
2023-02-16T17:13:40.381Z,9.75
2023-02-16T17:16:36.264Z,9.65
2023-02-16T17:19:24.366Z,9.54
2023-02-16T17:22:14.560Z,9.41
2023-02-16T17:25:02.204Z,9.28
2023-02-16T17:27:51.296Z,9.16
2023-02-16T17:30:39.615Z,9.05
2023-02-16T17:33:26.827Z,8.96
2023-02-16T17:36:17.130Z,8.86
2023-02-16T17:39:05.103Z,8.76
2023-02-16T17:41:53.000Z,8.66
2023-02-16T17:44:41.691Z,8.56
2023-02-16T17:47:29.296Z,8.48
2023-02-16T17:50:18.160Z,8.38
2023-02-16T17:53:10.492Z,8.28
2023-02-16T17:55:59.347Z,8.19
2023-02-16T17:58:46.817Z,8.10
2023-02-16T18:01:37.649Z,8.01
2023-02-16T18:04:25.308Z,7.93
2023-02-16T18:07:14.394Z,7.83
2023-02-16T18:10:02.054Z,7.74
2023-02-16T18:12:49.676Z,7.67
2023-02-16T18:15:37.274Z,7.60
2023-02-16T18:18:26.556Z,7.54
2023-02-16T18:21:14.687Z,7.49
2023-02-16T18:24:02.378Z,7.43
2023-02-16T18:26:51.858Z,7.35
2023-02-16T18:29:39.607Z,7.33
2023-02-16T18:32:27.184Z,7.31
2023-02-16T18:35:17.154Z,7.27
2023-02-16T18:38:05.292Z,7.23
2023-02-16T18:40:54.491Z,7.20
2023-02-16T18:43:41.876Z,7.17
2023-02-16T18:46:29.270Z,7.13
2023-02-16T18:49:16.779Z,7.11
2023-02-16T18:52:05.596Z,7.06
2023-02-16T18:54:53.685Z,7.05
2023-02-16T18:57:42.207Z,7.01
2023-02-16T19:00:30.649Z,6.99
2023-02-16T19:03:18.256Z,6.97
2023-02-16T19:06:07.000Z,6.92
2023-02-16T19:08:56.321Z,6.92
2023-02-16T19:11:43.815Z,6.90
2023-02-16T19:14:31.212Z,6.86
2023-02-16T19:17:18.806Z,6.83
2023-02-16T19:20:09.706Z,6.80
2023-02-16T19:22:57.436Z,6.80
2023-02-16T19:25:46.106Z,6.78
2023-02-16T19:28:33.876Z,6.72
2023-02-16T19:31:24.928Z,6.72
2023-02-16T19:34:13.255Z,6.71
2023-02-16T19:37:01.209Z,6.68
2023-02-16T19:39:48.821Z,6.61
2023-02-16T19:42:38.215Z,6.60
2023-02-16T19:45:25.859Z,6.59
2023-02-16T19:48:13.562Z,6.56
2023-02-16T19:51:04.639Z,6.52
2023-02-16T19:53:53.050Z,6.53
2023-02-16T19:56:41.436Z,6.51
2023-02-16T19:59:31.365Z,6.51
2023-02-16T20:02:19.250Z,6.49
2023-02-16T20:05:09.698Z,6.49
2023-02-16T20:07:57.725Z,6.50
2023-02-16T20:10:45.950Z,6.48
2023-02-16T20:13:33.394Z,6.48
2023-02-16T20:16:23.777Z,6.46
2023-02-16T20:19:12.016Z,6.45
2023-02-16T20:21:59.763Z,6.42
2023-02-16T20:24:47.108Z,6.40
2023-02-16T20:27:35.300Z,6.39
2023-02-16T20:30:25.266Z,6.38
2023-02-16T20:33:18.606Z,6.37
2023-02-16T20:36:08.152Z,6.36
2023-02-16T20:38:56.049Z,6.34
2023-02-16T20:41:43.892Z,6.33
2023-02-16T20:44:31.492Z,6.30
2023-02-16T20:47:18.976Z,6.31
2023-02-16T20:50:08.982Z,6.30
2023-02-16T20:52:56.406Z,6.30
2023-02-16T20:55:43.923Z,6.29
2023-02-16T20:58:31.998Z,6.30
2023-02-16T21:01:25.188Z,6.27
2023-02-16T21:04:14.873Z,6.24
2023-02-16T21:07:03.776Z,6.26
2023-02-16T21:09:51.050Z,6.26
2023-02-16T21:12:38.552Z,6.25
2023-02-16T21:15:26.037Z,6.23
2023-02-16T21:18:13.493Z,6.22
2023-02-16T21:21:01.301Z,6.22
2023-02-16T21:23:53.506Z,6.22
2023-02-16T21:26:41.306Z,6.20
2023-02-16T21:29:28.962Z,6.20
2023-02-16T21:32:16.271Z,6.19
2023-02-16T21:35:03.769Z,6.19
2023-02-16T21:37:51.170Z,6.19
2023-02-16T21:40:57.320Z,6.17
2023-02-16T21:43:44.810Z,6.16
2023-02-16T21:46:35.409Z,6.16
2023-02-16T21:49:21.971Z,6.15
2023-02-16T21:52:09.643Z,6.16
2023-02-16T21:55:14.827Z,6.15
2023-02-16T21:58:08.038Z,6.14
2023-02-16T22:00:56.350Z,6.12
2023-02-16T22:03:44.088Z,6.10
2023-02-16T22:06:34.547Z,6.12
2023-02-16T22:09:24.416Z,6.15
2023-02-16T22:12:12.400Z,6.22
2023-02-16T22:15:01.527Z,6.21
2023-02-16T22:17:50.050Z,6.16
2023-02-16T22:20:37.968Z,6.15
2023-02-16T22:23:25.295Z,6.11
2023-02-16T22:26:24.167Z,6.06
2023-02-16T22:29:12.992Z,6.04
2023-02-16T22:32:01.868Z,6.00
2023-02-16T22:34:49.730Z,5.98
2023-02-16T22:37:37.148Z,5.94
2023-02-16T22:40:24.638Z,5.89
2023-02-16T22:43:12.251Z,5.85
2023-02-16T22:45:59.795Z,5.80
2023-02-16T22:48:48.717Z,5.76
2023-02-16T22:51:37.395Z,5.71
2023-02-16T22:54:25.114Z,5.65
2023-02-16T22:57:12.785Z,5.60
2023-02-16T23:00:00.304Z,5.52
2023-02-16T23:02:47.828Z,5.44
2023-02-16T23:05:36.782Z,5.38
2023-02-16T23:08:25.036Z,5.29
2023-02-16T23:11:12.931Z,5.23
2023-02-16T23:14:00.752Z,5.16
2023-02-16T23:16:51.872Z,5.08
2023-02-16T23:19:40.191Z,5.02
2023-02-16T23:22:30.887Z,4.94
2023-02-16T23:25:33.730Z,4.87
2023-02-16T23:28:21.389Z,4.78
2023-02-16T23:31:09.741Z,4.72
2023-02-16T23:33:59.419Z,4.64
2023-02-16T23:36:48.635Z,4.58
2023-02-16T23:39:37.277Z,4.52
2023-02-16T23:42:24.563Z,4.46
2023-02-16T23:45:12.003Z,4.40
2023-02-16T23:47:59.429Z,4.33
2023-02-16T23:50:47.029Z,4.31
2023-02-16T23:53:35.418Z,4.28
2023-02-16T23:56:25.870Z,4.26
2023-02-16T23:59:13.221Z,4.21
